Time;durP1;ratioP1;P1;durP2;ratioP2;P2;SDS_P1;SDS_P2;PMS_P1;PMS_P2;Temp;Humidity;BMP_temperature;BMP_pressure;BME280_temperature;BME280_humidity;BME280_pressure;Samples;Min_cycle;Max_cycle;Signal;HPM_P1;HPM_P2
2023/06/11 00:01:23;;;;;;;;;;;19.60;99.90;;;;;;5061113;28;20445;-68
2023/06/11 00:03:52;;;;;;;;;;;19.50;99.90;;;;;;5094995;28;19928;-68
2023/06/11 00:06:20;;;;;;;;;;;19.60;99.90;;;;;;5094386;28;19930;-68
2023/06/11 00:08:46;;;;;;;;;;;19.60;99.90;;;;;;5077299;28;19926;-68
2023/06/11 00:11:12;;;;;;;;;;;19.60;99.90;;;;;;5093918;28;20398;-68
2023/06/11 00:13:37;;;;;;;;;;;19.60;99.90;;;;;;5094782;28;19924;-68
2023/06/11 00:16:03;;;;;;;;;;;19.60;99.90;;;;;;5094601;28;20359;-69
2023/06/11 00:18:28;;;;;;;;;;;19.60;99.90;;;;;;5112345;28;20140;-70
2023/06/11 00:20:56;;;;;;;;;;;19.60;99.90;;;;;;5061197;28;20362;-69
2023/06/11 00:23:22;;;;;;;;;;;19.60;99.90;;;;;;5094569;28;19924;-71
2023/06/11 00:25:48;;;;;;;;;;;19.50;99.90;;;;;;5112865;28;20011;-69
2023/06/11 00:28:13;;;;;;;;;;;19.50;99.90;;;;;;5093855;28;19924;-69
2023/06/11 00:30:39;;;;;;;;;;;19.50;99.90;;;;;;5094566;28;19935;-70
2023/06/11 00:33:05;;;;;;;;;;;19.40;99.90;;;;;;5094467;28;19966;-70
2023/06/11 00:35:30;;;;;;;;;;;19.40;99.90;;;;;;5077429;28;20289;-66
2023/06/11 00:37:57;;;;;;;;;;;19.40;99.90;;;;;;5061079;28;19931;-67
2023/06/11 00:40:23;;;;;;;;;;;19.40;99.90;;;;;;5094237;28;19924;-68
2023/06/11 00:42:50;;;;;;;;;;;19.30;99.90;;;;;;5094457;28;19928;-68
2023/06/11 00:45:16;;;;;;;;;;;19.30;99.90;;;;;;5077313;28;20357;-68
2023/06/11 00:47:42;;;;;;;;;;;19.30;99.90;;;;;;5077598;28;19928;-68
2023/06/11 00:50:08;;;;;;;;;;;19.30;99.90;;;;;;5094507;28;19924;-68
2023/06/11 00:52:34;;;;;;;;;;;19.30;99.90;;;;;;5077196;28;20010;-68
2023/06/11 00:55:00;;;;;;;;;;;19.30;99.90;;;;;;5096777;28;20385;-68
2023/06/11 00:57:25;;;;;;;;;;;19.30;99.90;;;;;;5097267;28;19970;-68
2023/06/11 00:59:53;;;;;;;;;;;19.20;99.90;;;;;;5097873;28;19967;-68
2023/06/11 01:02:33;;;;;;;;;;;19.20;99.90;;;;;;5064421;28;19924;-68
2023/06/11 01:05:01;;;;;;;;;;;19.20;99.90;;;;;;5081035;28;19927;-68
2023/06/11 01:07:32;;;;;;;;;;;19.20;99.90;;;;;;5080686;28;19986;-68
2023/06/11 01:09:58;;;;;;;;;;;19.10;99.90;;;;;;5097896;28;19924;-68
2023/06/11 01:12:23;;;;;;;;;;;19.10;99.90;;;;;;5080336;28;19989;-68
2023/06/11 01:14:49;;;;;;;;;;;19.10;99.90;;;;;;5080688;28;19927;-68
2023/06/11 01:17:31;;;;;;;;;;;19.10;99.90;;;;;;5080954;28;19970;-69
2023/06/11 01:20:03;;;;;;;;;;;19.00;99.90;;;;;;5080823;28;20414;-68
2023/06/11 01:22:31;;;;;;;;;;;19.00;99.90;;;;;;5097504;28;20385;-68
2023/06/11 01:25:16;;;;;;;;;;;19.00;99.90;;;;;;5080931;28;19924;-67
2023/06/11 01:27:48;;;;;;;;;;;19.00;99.90;;;;;;5097348;28;20331;-68
2023/06/11 01:30:17;;;;;;;;;;;19.00;99.90;;;;;;5080791;28;19937;-68
2023/06/11 01:32:45;;;;;;;;;;;19.00;99.90;;;;;;5096979;28;19920;-68
2023/06/11 01:35:11;;;;;;;;;;;18.90;99.90;;;;;;5080574;28;19953;-68
2023/06/11 01:37:37;;;;;;;;;;;18.90;99.90;;;;;;5097160;28;20374;-68
2023/06/11 01:40:02;;;;;;;;;;;18.90;99.90;;;;;;5080415;28;19924;-68
2023/06/11 01:42:28;;;;;;;;;;;18.80;99.90;;;;;;5063689;28;19969;-68
2023/06/11 01:44:53;;;;;;;;;;;18.80;99.90;;;;;;5115265;28;19927;-68
2023/06/11 01:47:20;;;;;;;;;;;18.80;99.90;;;;;;5097003;28;19935;-68
2023/06/11 01:49:45;;;;;;;;;;;18.70;99.90;;;;;;5096661;28;19927;-69
2023/06/11 01:52:11;;;;;;;;;;;18.70;99.90;;;;;;5097190;28;19924;-69
2023/06/11 01:54:36;;;;;;;;;;;18.70;99.90;;;;;;5096900;28;19924;-68
2023/06/11 01:57:02;;;;;;;;;;;18.60;99.90;;;;;;5096745;28;19923;-68
2023/06/11 01:59:28;;;;;;;;;;;18.60;99.90;;;;;;5096502;28;20399;-67
2023/06/11 02:01:53;;;;;;;;;;;18.60;99.90;;;;;;5096935;28;20034;-68
2023/06/11 02:04:19;;;;;;;;;;;18.60;99.90;;;;;;5096813;28;20027;-69
2023/06/11 02:06:46;;;;;;;;;;;18.50;99.90;;;;;;5095229;28;19971;-69
2023/06/11 02:09:12;;;;;;;;;;;18.50;99.90;;;;;;5079842;28;19924;-68
2023/06/11 02:11:37;;;;;;;;;;;18.40;99.90;;;;;;5096404;28;20018;-68
2023/06/11 02:14:03;;;;;;;;;;;18.40;99.90;;;;;;5096760;28;19924;-68
2023/06/11 02:16:28;;;;;;;;;;;18.40;99.90;;;;;;5079136;28;19927;-69
2023/06/11 02:18:54;;;;;;;;;;;18.30;99.90;;;;;;5096650;28;19946;-68
2023/06/11 02:21:20;;;;;;;;;;;18.30;99.90;;;;;;5079823;28;19970;-69
2023/06/11 02:23:45;;;;;;;;;;;18.30;99.90;;;;;;5079433;28;20014;-68
2023/06/11 02:26:11;;;;;;;;;;;18.30;99.90;;;;;;5096406;28;19984;-68
2023/06/11 02:28:37;;;;;;;;;;;18.30;99.90;;;;;;5095952;28;19924;-68
2023/06/11 02:31:02;;;;;;;;;;;18.30;99.90;;;;;;5096190;28;19930;-69
2023/06/11 02:33:28;;;;;;;;;;;18.30;99.90;;;;;;5079566;28;20308;-69
2023/06/11 02:35:54;;;;;;;;;;;18.20;99.90;;;;;;5079484;28;19924;-68
2023/06/11 02:38:19;;;;;;;;;;;18.20;99.90;;;;;;5096282;28;19927;-69
2023/06/11 02:40:45;;;;;;;;;;;18.20;99.90;;;;;;5095956;28;20018;-68
2023/06/11 02:43:10;;;;;;;;;;;18.20;99.90;;;;;;5079262;28;19927;-69
2023/06/11 02:45:36;;;;;;;;;;;18.10;99.90;;;;;;5095860;28;19946;-70
2023/06/11 02:48:01;;;;;;;;;;;18.10;99.90;;;;;;5095831;28;20003;-69
2023/06/11 02:50:27;;;;;;;;;;;18.00;99.90;;;;;;5096005;28;19992;-69
2023/06/11 02:52:53;;;;;;;;;;;18.00;99.90;;;;;;5113529;28;20326;-68
2023/06/11 02:55:18;;;;;;;;;;;18.00;99.90;;;;;;5095870;28;19963;-68
2023/06/11 02:57:44;;;;;;;;;;;18.00;99.90;;;;;;5061602;28;20370;-68
2023/06/11 03:00:10;;;;;;;;;;;18.00;99.90;;;;;;5095699;28;19926;-68
2023/06/11 03:02:36;;;;;;;;;;;17.90;99.90;;;;;;5095316;28;19924;-68
2023/06/11 03:05:02;;;;;;;;;;;17.90;99.90;;;;;;5078620;28;19920;-68
2023/06/11 03:07:28;;;;;;;;;;;17.80;99.90;;;;;;5078053;28;19924;-68
2023/06/11 03:09:54;;;;;;;;;;;17.80;99.90;;;;;;5077951;28;20027;-68
2023/06/11 03:12:20;;;;;;;;;;;17.80;99.90;;;;;;5113234;28;19927;-69
2023/06/11 03:14:46;;;;;;;;;;;17.80;99.90;;;;;;5061764;28;19923;-68
2023/06/11 03:17:11;;;;;;;;;;;17.70;99.90;;;;;;5078276;28;19973;-68
2023/06/11 03:19:37;;;;;;;;;;;17.70;99.90;;;;;;5113122;28;19943;-68
2023/06/11 03:22:02;;;;;;;;;;;17.70;99.90;;;;;;5113525;28;19924;-69
2023/06/11 03:24:28;;;;;;;;;;;17.70;99.90;;;;;;5078535;28;19930;-69
2023/06/11 03:26:54;;;;;;;;;;;17.70;99.90;;;;;;5061599;28;19923;-69
2023/06/11 03:29:19;;;;;;;;;;;17.70;99.90;;;;;;5095055;28;20359;-69
2023/06/11 03:31:45;;;;;;;;;;;17.70;99.90;;;;;;5078160;28;20014;-68
2023/06/11 03:34:10;;;;;;;;;;;17.70;99.90;;;;;;5095010;28;19996;-69
2023/06/11 03:36:36;;;;;;;;;;;17.60;99.90;;;;;;5094918;28;20408;-73
2023/06/11 03:39:02;;;;;;;;;;;17.60;99.90;;;;;;5113149;28;19973;-68
2023/06/11 03:41:28;;;;;;;;;;;17.60;99.90;;;;;;5095115;28;19924;-69
2023/06/11 03:43:53;;;;;;;;;;;17.60;99.90;;;;;;5077899;28;20042;-68
2023/06/11 03:46:21;;;;;;;;;;;17.60;99.90;;;;;;5094827;28;19928;-68
2023/06/11 03:48:46;;;;;;;;;;;17.60;99.90;;;;;;5094361;28;19986;-68
2023/06/11 03:51:12;;;;;;;;;;;17.60;99.90;;;;;;5112893;28;19924;-68
2023/06/11 03:53:38;;;;;;;;;;;17.60;99.90;;;;;;5094936;28;19924;-68
2023/06/11 03:56:04;;;;;;;;;;;17.60;99.90;;;;;;5078204;28;19924;-67
2023/06/11 03:58:29;;;;;;;;;;;17.60;99.90;;;;;;5077389;28;20403;-69
2023/06/11 04:00:55;;;;;;;;;;;17.60;99.90;;;;;;5112501;28;19924;-70
2023/06/11 04:03:21;;;;;;;;;;;17.60;99.90;;;;;;5077850;28;19930;-68
2023/06/11 04:05:46;;;;;;;;;;;17.60;99.90;;;;;;5077759;28;19966;-67
2023/06/11 04:08:12;;;;;;;;;;;17.60;99.90;;;;;;5094648;28;19969;-67
2023/06/11 04:10:37;;;;;;;;;;;17.60;99.90;;;;;;5112793;28;19924;-68
2023/06/11 04:13:03;;;;;;;;;;;17.70;99.90;;;;;;5060656;28;19924;-68
2023/06/11 04:15:29;;;;;;;;;;;17.70;99.90;;;;;;5061414;28;19966;-67
2023/06/11 04:17:55;;;;;;;;;;;17.70;99.90;;;;;;5077599;28;19924;-67
2023/06/11 04:20:20;;;;;;;;;;;17.70;99.90;;;;;;5077684;28;19924;-68
2023/06/11 04:22:46;;;;;;;;;;;17.80;99.90;;;;;;5077648;28;20025;-68
2023/06/11 04:25:12;;;;;;;;;;;17.80;99.90;;;;;;5077869;28;20415;-69
2023/06/11 04:27:38;;;;;;;;;;;17.90;99.90;;;;;;5094504;28;20242;-68
2023/06/11 04:30:05;;;;;;;;;;;17.90;99.90;;;;;;5080354;28;19930;-69
2023/06/11 04:32:34;;;;;;;;;;;18.00;99.90;;;;;;5098819;28;19924;-70
2023/06/11 04:35:02;;;;;;;;;;;18.00;99.90;;;;;;5098434;28;19931;-69
2023/06/11 04:37:29;;;;;;;;;;;18.00;99.90;;;;;;5081775;28;19923;-69
2023/06/11 04:39:56;;;;;;;;;;;18.10;99.90;;;;;;5098366;28;19923;-67
2023/06/11 04:42:24;;;;;;;;;;;18.20;99.90;;;;;;5081445;28;19967;-68
2023/06/11 04:44:50;;;;;;;;;;;18.30;99.90;;;;;;5098193;28;19928;-68
2023/06/11 04:47:16;;;;;;;;;;;18.40;99.90;;;;;;5098571;28;19923;-68
2023/06/11 04:49:43;;;;;;;;;;;18.60;99.90;;;;;;5098113;28;19924;-69
2023/06/11 04:52:09;;;;;;;;;;;18.90;99.90;;;;;;5081172;28;20355;-69
2023/06/11 04:54:35;;;;;;;;;;;19.50;99.90;;;;;;5064509;28;19923;-68
2023/06/11 04:57:00;;;;;;;;;;;20.00;99.90;;;;;;5080596;28;19930;-67
2023/06/11 04:59:26;;;;;;;;;;;20.70;99.90;;;;;;5098027;28;19947;-67
2023/06/11 05:01:53;;;;;;;;;;;21.10;99.90;;;;;;5081055;28;20006;-67
2023/06/11 05:04:19;;;;;;;;;;;21.60;99.90;;;;;;5080949;28;20030;-67
2023/06/11 05:06:45;;;;;;;;;;;22.10;99.90;;;;;;5098022;28;20010;-67
2023/06/11 05:09:12;;;;;;;;;;;22.60;99.90;;;;;;5097547;28;20284;-68
2023/06/11 05:11:39;;;;;;;;;;;23.00;99.90;;;;;;5081070;28;19923;-68
2023/06/11 05:14:04;;;;;;;;;;;23.30;99.90;;;;;;5115646;28;20338;-68
2023/06/11 05:16:31;;;;;;;;;;;23.50;99.90;;;;;;5097664;28;20010;-69
2023/06/11 05:18:56;;;;;;;;;;;23.80;99.90;;;;;;5080826;28;19923;-68
2023/06/11 05:21:22;;;;;;;;;;;24.10;99.90;;;;;;5097735;28;20357;-68
2023/06/11 05:23:48;;;;;;;;;;;24.40;99.90;;;;;;5080341;28;19934;-69
2023/06/11 05:26:14;;;;;;;;;;;24.60;99.90;;;;;;5080610;28;20297;-70
2023/06/11 05:28:40;;;;;;;;;;;24.80;99.90;;;;;;5115599;28;19935;-68
2023/06/11 05:31:06;;;;;;;;;;;25.00;99.90;;;;;;5063979;28;19924;-68
2023/06/11 05:33:31;;;;;;;;;;;25.20;99.90;;;;;;5097669;28;20434;-68
2023/06/11 05:35:57;;;;;;;;;;;25.50;99.90;;;;;;5063761;28;19971;-69
2023/06/11 05:38:24;;;;;;;;;;;25.60;99.90;;;;;;5097384;28;20018;-68
2023/06/11 05:40:50;;;;;;;;;;;25.70;99.90;;;;;;5115145;28;19941;-68
2023/06/11 05:43:15;;;;;;;;;;;26.00;99.90;;;;;;5097143;28;19923;-68
2023/06/11 05:45:51;;;;;;;;;;;26.10;99.90;;;;;;5115383;28;19924;-70
2023/06/11 05:48:16;;;;;;;;;;;26.00;99.70;;;;;;5079897;28;19949;-69
2023/06/11 05:50:42;;;;;;;;;;;26.20;99.50;;;;;;5080597;28;19927;-68
2023/06/11 05:53:09;;;;;;;;;;;26.50;99.90;;;;;;5080137;28;20018;-68
2023/06/11 05:55:35;;;;;;;;;;;26.60;99.90;;;;;;5097168;28;20349;-68
2023/06/11 05:58:01;;;;;;;;;;;26.80;99.30;;;;;;5096360;28;19931;-68
2023/06/11 06:00:27;;;;;;;;;;;26.80;99.50;;;;;;5080308;28;19924;-68
2023/06/11 06:02:53;;;;;;;;;;;26.60;98.30;;;;;;5097068;28;20009;-69
2023/06/11 06:05:18;;;;;;;;;;;26.80;99.50;;;;;;5079813;28;19928;-69
2023/06/11 06:07:44;;;;;;;;;;;27.20;99.20;;;;;;5096795;28;19966;-68
2023/06/11 06:10:10;;;;;;;;;;;27.40;98.50;;;;;;5096706;28;20326;-68
2023/06/11 06:12:35;;;;;;;;;;;27.40;98.40;;;;;;5097012;28;20311;-68
2023/06/11 06:15:01;;;;;;;;;;;27.60;98.80;;;;;;5096622;28;19924;-69
2023/06/11 06:17:26;;;;;;;;;;;27.50;98.20;;;;;;5096821;28;19931;-69
2023/06/11 06:19:52;;;;;;;;;;;27.70;97.40;;;;;;5096575;28;19919;-69
2023/06/11 06:22:18;;;;;;;;;;;28.10;98.20;;;;;;5096474;28;20144;-69
2023/06/11 06:24:44;;;;;;;;;;;28.70;97.50;;;;;;5079875;28;20369;-69
2023/06/11 06:27:10;;;;;;;;;;;28.90;97.70;;;;;;5096166;28;20300;-69
2023/06/11 06:29:38;;;;;;;;;;;28.90;97.20;;;;;;5114391;28;19924;-70
2023/06/11 06:32:07;;;;;;;;;;;28.80;96.10;;;;;;5079294;28;19973;-69
2023/06/11 06:34:34;;;;;;;;;;;28.90;96.50;;;;;;5095958;28;19920;-69
2023/06/11 06:37:00;;;;;;;;;;;28.70;95.80;;;;;;5096297;28;19930;-74
2023/06/11 06:39:26;;;;;;;;;;;28.80;95.80;;;;;;5063051;28;19985;-69
2023/06/11 06:41:52;;;;;;;;;;;29.00;95.60;;;;;;5114277;28;19924;-69
2023/06/11 06:44:18;;;;;;;;;;;29.20;96.50;;;;;;5079028;28;20028;-70
2023/06/11 06:46:43;;;;;;;;;;;29.60;96.30;;;;;;5079014;28;19973;-69
2023/06/11 06:49:09;;;;;;;;;;;29.90;95.60;;;;;;5078828;28;19975;-69
2023/06/11 06:51:36;;;;;;;;;;;30.00;94.70;;;;;;5078236;28;20393;-66
2023/06/11 06:54:01;;;;;;;;;;;30.20;94.60;;;;;;5095787;28;20371;-67
2023/06/11 06:56:27;;;;;;;;;;;30.50;94.80;;;;;;5095646;28;20018;-69
2023/06/11 06:58:53;;;;;;;;;;;30.50;94.90;;;;;;5078610;28;19923;-69
2023/06/11 07:01:18;;;;;;;;;;;30.70;93.80;;;;;;5095306;28;20417;-69
2023/06/11 07:03:44;;;;;;;;;;;30.60;93.80;;;;;;5095773;28;19923;-69
2023/06/11 07:06:09;;;;;;;;;;;30.60;94.00;;;;;;5095329;28;19930;-70
2023/06/11 07:08:37;;;;;;;;;;;30.90;94.30;;;;;;5078725;28;20297;-67
2023/06/11 07:11:03;;;;;;;;;;;30.80;93.40;;;;;;5095723;28;19934;-67
2023/06/11 07:13:28;;;;;;;;;;;31.20;94.50;;;;;;5095466;28;20376;-67
2023/06/11 07:15:54;;;;;;;;;;;31.70;93.40;;;;;;5061954;28;19928;-69
2023/06/11 07:18:20;;;;;;;;;;;31.80;93.60;;;;;;5061618;28;20030;-68
2023/06/11 07:20:45;;;;;;;;;;;32.00;93.10;;;;;;5078684;28;19924;-68
2023/06/11 07:23:11;;;;;;;;;;;32.10;92.70;;;;;;5078137;28;20425;-68
2023/06/11 07:25:37;;;;;;;;;;;32.00;92.70;;;;;;5095201;28;19999;-68
2023/06/11 07:28:03;;;;;;;;;;;32.10;92.80;;;;;;5078004;28;20039;-67
2023/06/11 07:30:30;;;;;;;;;;;32.10;92.20;;;;;;5077915;28;20006;-68
2023/06/11 07:32:56;;;;;;;;;;;32.40;92.60;;;;;;5095353;28;19930;-69
2023/06/11 07:35:22;;;;;;;;;;;32.50;92.10;;;;;;5094188;28;19924;-69
2023/06/11 07:37:48;;;;;;;;;;;32.40;91.80;;;;;;5078279;28;19931;-69
2023/06/11 07:40:15;;;;;;;;;;;32.40;91.90;;;;;;5077848;28;19992;-70
2023/06/11 07:42:41;;;;;;;;;;;32.50;92.10;;;;;;5061467;28;19931;-68
2023/06/11 07:45:07;;;;;;;;;;;32.70;91.40;;;;;;5078321;28;19924;-68
2023/06/11 07:47:33;;;;;;;;;;;33.00;91.50;;;;;;5077946;28;20374;-69
2023/06/11 07:49:59;;;;;;;;;;;33.40;91.40;;;;;;5061240;28;19934;-70
2023/06/11 07:52:25;;;;;;;;;;;33.70;91.60;;;;;;5094849;28;19930;-69
2023/06/11 07:54:51;;;;;;;;;;;33.70;91.20;;;;;;5095119;28;19924;-69
2023/06/11 07:57:17;;;;;;;;;;;33.50;90.40;;;;;;5077488;28;19931;-69
2023/06/11 07:59:43;;;;;;;;;;;33.20;90.50;;;;;;5094958;28;19924;-70
2023/06/11 08:02:09;;;;;;;;;;;33.50;90.20;;;;;;5094781;28;20091;-70
2023/06/11 08:04:35;;;;;;;;;;;33.70;90.60;;;;;;5094153;28;20355;-69
2023/06/11 08:07:01;;;;;;;;;;;33.30;90.30;;;;;;5078045;28;19930;-68
2023/06/11 08:09:26;;;;;;;;;;;33.30;90.40;;;;;;5077187;28;20373;-68
2023/06/11 08:11:52;;;;;;;;;;;33.30;90.30;;;;;;5094601;28;19924;-69
2023/06/11 08:14:20;;;;;;;;;;;33.60;90.80;;;;;;5094413;28;19928;-69
2023/06/11 08:16:46;;;;;;;;;;;33.80;90.30;;;;;;5093993;28;20364;-69
2023/06/11 08:19:12;;;;;;;;;;;33.80;90.30;;;;;;5094022;28;19924;-69
2023/06/11 08:21:37;;;;;;;;;;;33.80;89.60;;;;;;5093912;28;20388;-69
2023/06/11 08:24:03;;;;;;;;;;;33.70;90.10;;;;;;5060982;28;19986;-69
2023/06/11 08:26:29;;;;;;;;;;;33.70;90.10;;;;;;5094041;28;20369;-69
2023/06/11 08:28:54;;;;;;;;;;;34.10;90.40;;;;;;5077351;28;19924;-69
2023/06/11 08:31:20;;;;;;;;;;;34.60;90.30;;;;;;5094046;28;20022;-68
2023/06/11 08:33:46;;;;;;;;;;;34.80;88.90;;;;;;5094306;28;20288;-69
2023/06/11 08:36:12;;;;;;;;;;;34.60;89.40;;;;;;5094282;28;19924;-69
2023/06/11 08:38:37;;;;;;;;;;;34.30;89.30;;;;;;5077402;28;19923;-69
2023/06/11 08:41:03;;;;;;;;;;;34.40;88.60;;;;;;5094393;28;20396;-68
2023/06/11 08:43:28;;;;;;;;;;;34.50;89.40;;;;;;5094003;28;19923;-68
2023/06/11 08:45:54;;;;;;;;;;;34.80;89.00;;;;;;5094264;28;19977;-68
2023/06/11 08:48:23;;;;;;;;;;;35.00;88.30;;;;;;5093851;28;20014;-67
2023/06/11 08:50:50;;;;;;;;;;;35.10;88.10;;;;;;5094409;28;19934;-68
2023/06/11 08:53:15;;;;;;;;;;;35.20;88.30;;;;;;5094382;28;19931;-68
2023/06/11 08:55:41;;;;;;;;;;;35.40;88.10;;;;;;5093851;28;19923;-67
2023/06/11 08:58:09;;;;;;;;;;;35.20;87.80;;;;;;5112226;28;19923;-68
2023/06/11 09:00:38;;;;;;;;;;;34.80;88.10;;;;;;5094100;28;19974;-68
2023/06/11 09:03:04;;;;;;;;;;;34.90;88.00;;;;;;5094430;28;19923;-68
2023/06/11 09:05:33;;;;;;;;;;;35.00;88.50;;;;;;5094085;28;19928;-67
2023/06/11 09:07:58;;;;;;;;;;;35.10;88.20;;;;;;5077300;28;19924;-68
2023/06/11 09:10:24;;;;;;;;;;;35.20;87.90;;;;;;5076770;28;19924;-68
2023/06/11 09:12:49;;;;;;;;;;;35.50;87.50;;;;;;5077321;28;20262;-66
2023/06/11 09:15:16;;;;;;;;;;;35.70;86.40;;;;;;5113294;28;19941;-67
2023/06/11 09:17:43;;;;;;;;;;;35.40;86.70;;;;;;5097370;28;19947;-67
2023/06/11 09:20:10;;;;;;;;;;;35.40;85.80;;;;;;5097832;28;20388;-67
2023/06/11 09:22:37;;;;;;;;;;;35.50;86.20;;;;;;5097475;28;19924;-67
2023/06/11 09:25:03;;;;;;;;;;;35.40;86.10;;;;;;5097791;28;19923;-67
2023/06/11 09:27:29;;;;;;;;;;;35.00;86.20;;;;;;5080192;28;20381;-67
2023/06/11 09:29:54;;;;;;;;;;;35.10;86.30;;;;;;5080396;28;19980;-67
2023/06/11 09:32:20;;;;;;;;;;;35.20;86.10;;;;;;5080717;28;19923;-68
2023/06/11 09:34:46;;;;;;;;;;;34.90;86.60;;;;;;5097039;28;19924;-66
2023/06/11 09:37:11;;;;;;;;;;;34.90;86.10;;;;;;5096909;28;19924;-66
2023/06/11 09:39:39;;;;;;;;;;;35.00;86.50;;;;;;5096936;28;19931;-65
2023/06/11 09:42:05;;;;;;;;;;;35.20;86.80;;;;;;5115390;28;19978;-65
2023/06/11 09:44:31;;;;;;;;;;;35.30;85.20;;;;;;5114904;28;20292;-65
2023/06/11 09:46:57;;;;;;;;;;;35.50;85.70;;;;;;5096925;28;19927;-66
2023/06/11 09:49:23;;;;;;;;;;;35.70;85.40;;;;;;5096883;28;19928;-67
2023/06/11 09:51:51;;;;;;;;;;;35.80;85.20;;;;;;5114516;28;20259;-65
2023/06/11 09:54:17;;;;;;;;;;;35.90;85.70;;;;;;5096861;28;19931;-66
2023/06/11 09:56:43;;;;;;;;;;;35.60;85.40;;;;;;5114557;28;19923;-65
2023/06/11 09:59:10;;;;;;;;;;;35.30;85.40;;;;;;5114960;28;19970;-66
2023/06/11 10:01:35;;;;;;;;;;;35.20;85.10;;;;;;5114604;28;19967;-67
2023/06/11 10:04:01;;;;;;;;;;;35.00;84.50;;;;;;5114819;28;20360;-67
2023/06/11 10:06:29;;;;;;;;;;;34.70;84.60;;;;;;5096421;28;20061;-69
2023/06/11 10:08:57;;;;;;;;;;;34.40;85.30;;;;;;5114628;28;19979;-67
2023/06/11 10:11:23;;;;;;;;;;;34.10;84.80;;;;;;5114529;28;20381;-68
2023/06/11 10:13:55;;;;;;;;;;;33.90;85.20;;;;;;5096393;28;20349;-68
2023/06/11 10:16:21;;;;;;;;;;;33.50;85.30;;;;;;5096493;28;20382;-68
2023/06/11 10:18:46;;;;;;;;;;;33.40;85.50;;;;;;5114221;28;19931;-68
2023/06/11 10:21:12;;;;;;;;;;;33.30;85.90;;;;;;5096385;28;19924;-68
2023/06/11 10:23:41;;;;;;;;;;;33.10;85.90;;;;;;5114005;28;20357;-68
2023/06/11 10:26:09;;;;;;;;;;;32.90;85.60;;;;;;5113597;28;20293;-68
2023/06/11 10:28:40;;;;;;;;;;;32.80;86.50;;;;;;5113597;28;19924;-68
2023/06/11 10:31:06;;;;;;;;;;;32.80;86.30;;;;;;5114314;28;19924;-68
2023/06/11 10:33:43;;;;;;;;;;;32.80;86.00;;;;;;5096114;28;20317;-68
2023/06/11 10:36:08;;;;;;;;;;;32.80;85.70;;;;;;5095870;28;19927;-69
2023/06/11 10:38:37;;;;;;;;;;;32.60;86.30;;;;;;5095722;28;19919;-68
2023/06/11 10:41:06;;;;;;;;;;;32.70;86.10;;;;;;5096172;28;20279;-68
2023/06/11 10:43:32;;;;;;;;;;;32.60;86.00;;;;;;5114169;28;19923;-68
2023/06/11 10:46:02;;;;;;;;;;;32.50;86.40;;;;;;5095834;28;20019;-67
2023/06/11 10:48:28;;;;;;;;;;;32.30;86.80;;;;;;5095828;28;19931;-68
2023/06/11 10:51:03;;;;;;;;;;;32.20;86.50;;;;;;5113511;28;19962;-68
2023/06/11 10:53:40;;;;;;;;;;;32.20;86.70;;;;;;5113949;28;19928;-66
2023/06/11 10:56:06;;;;;;;;;;;32.20;87.20;;;;;;5113751;28;19923;-67
2023/06/11 10:58:32;;;;;;;;;;;32.20;88.10;;;;;;5094956;28;19924;-66
2023/06/11 11:00:58;;;;;;;;;;;32.20;86.80;;;;;;5095041;28;19924;-66
2023/06/11 11:03:25;;;;;;;;;;;32.30;87.10;;;;;;5113540;28;19924;-67
2023/06/11 11:05:52;;;;;;;;;;;32.20;87.10;;;;;;5078509;28;20342;-66
2023/06/11 11:08:17;;;;;;;;;;;32.30;86.10;;;;;;5113466;28;19924;-69
2023/06/11 11:10:43;;;;;;;;;;;32.30;84.30;;;;;;5113242;28;19951;-68
2023/06/11 11:13:08;;;;;;;;;;;32.40;85.50;;;;;;5095398;28;19989;-69
2023/06/11 11:15:34;;;;;;;;;;;32.40;84.60;;;;;;5113524;28;20069;-66
2023/06/11 11:18:00;;;;;;;;;;;32.40;84.60;;;;;;5113214;28;20202;-68
2023/06/11 11:20:25;;;;;;;;;;;32.30;85.00;;;;;;5113354;28;19924;-68
2023/06/11 11:22:55;;;;;;;;;;;32.30;84.50;;;;;;5113004;28;20249;-69
2023/06/11 11:25:21;;;;;;;;;;;32.30;83.80;;;;;;5095505;28;19947;-69
2023/06/11 11:27:47;;;;;;;;;;;32.30;84.20;;;;;;5077726;28;20064;-69
2023/06/11 11:30:14;;;;;;;;;;;32.30;84.00;;;;;;5095249;28;20354;-68
2023/06/11 11:32:40;;;;;;;;;;;32.10;83.70;;;;;;5094990;28;20311;-71
2023/06/11 11:35:07;;;;;;;;;;;31.90;83.10;;;;;;5078384;28;20019;-69
2023/06/11 11:37:33;;;;;;;;;;;32.00;83.50;;;;;;5095012;28;19924;-69
2023/06/11 11:40:07;;;;;;;;;;;32.00;80.40;;;;;;5077921;28;20373;-69
2023/06/11 11:42:45;;;;;;;;;;;31.90;81.50;;;;;;5078059;28;19976;-69
2023/06/11 11:45:11;;;;;;;;;;;31.80;81.10;;;;;;5094821;28;19927;-69
2023/06/11 11:47:37;;;;;;;;;;;31.70;81.20;;;;;;5112933;28;19923;-69
2023/06/11 11:50:03;;;;;;;;;;;31.90;81.30;;;;;;5094000;28;20398;-69
2023/06/11 11:52:28;;;;;;;;;;;31.80;81.30;;;;;;5078047;28;20003;-70
2023/06/11 11:54:55;;;;;;;;;;;31.90;81.10;;;;;;5094444;28;19986;-70
2023/06/11 11:57:21;;;;;;;;;;;32.00;80.60;;;;;;5077331;28;19977;-69
2023/06/11 11:59:51;;;;;;;;;;;31.90;81.00;;;;;;5094291;28;19983;-70
2023/06/11 12:02:16;;;;;;;;;;;31.90;81.60;;;;;;5094254;28;19924;-69
2023/06/11 12:04:46;;;;;;;;;;;32.00;80.30;;;;;;5077700;28;19920;-70
2023/06/11 12:07:14;;;;;;;;;;;32.00;80.50;;;;;;5094654;28;19958;-69
2023/06/11 12:09:40;;;;;;;;;;;32.10;79.80;;;;;;5094122;28;20377;-70
2023/06/11 12:12:07;;;;;;;;;;;32.00;80.00;;;;;;5094321;28;19920;-69
2023/06/11 12:14:36;;;;;;;;;;;32.10;79.30;;;;;;5077715;28;19939;-70
2023/06/11 12:17:02;;;;;;;;;;;32.10;79.80;;;;;;5077254;28;19923;-71
2023/06/11 12:19:32;;;;;;;;;;;32.30;79.50;;;;;;5094433;28;19931;-69
2023/06/11 12:21:58;;;;;;;;;;;32.20;79.10;;;;;;5111843;28;19923;-70
2023/06/11 12:24:23;;;;;;;;;;;32.10;79.40;;;;;;5112473;28;19977;-70
2023/06/11 12:26:50;;;;;;;;;;;32.00;79.50;;;;;;5077264;28;19928;-71
2023/06/11 12:29:16;;;;;;;;;;;31.90;79.20;;;;;;5077474;28;19924;-69
2023/06/11 12:31:41;;;;;;;;;;;31.90;79.70;;;;;;5077613;28;20266;-69
2023/06/11 12:34:08;;;;;;;;;;;32.00;79.60;;;;;;5093967;28;19924;-70
2023/06/11 12:36:33;;;;;;;;;;;32.10;79.70;;;;;;5094489;28;19924;-70
2023/06/11 12:39:01;;;;;;;;;;;32.00;79.40;;;;;;5077139;28;19934;-70
2023/06/11 12:41:27;;;;;;;;;;;32.00;79.30;;;;;;5112410;28;19924;-70
2023/06/11 12:43:55;;;;;;;;;;;32.00;79.10;;;;;;5094068;28;19924;-70
2023/06/11 12:46:21;;;;;;;;;;;32.10;78.60;;;;;;5094204;28;19927;-70
2023/06/11 12:48:46;;;;;;;;;;;32.00;78.20;;;;;;5077316;28;20057;-69
2023/06/11 12:51:12;;;;;;;;;;;32.00;78.40;;;;;;5096752;28;19920;-69
2023/06/11 12:53:37;;;;;;;;;;;32.00;78.30;;;;;;5098029;28;19931;-68
2023/06/11 12:56:03;;;;;;;;;;;32.00;77.80;;;;;;5097395;28;19924;-69
2023/06/11 12:58:29;;;;;;;;;;;31.80;78.20;;;;;;5080405;28;19927;-69
2023/06/11 13:00:54;;;;;;;;;;;31.80;77.60;;;;;;5097755;28;19924;-69
2023/06/11 13:03:20;;;;;;;;;;;31.70;78.00;;;;;;5081228;28;19999;-69
2023/06/11 13:05:46;;;;;;;;;;;31.70;78.90;;;;;;5081091;28;19924;-68
2023/06/11 13:08:11;;;;;;;;;;;31.80;78.50;;;;;;5063625;28;20288;-69
2023/06/11 13:10:39;;;;;;;;;;;31.80;78.20;;;;;;5080939;28;19950;-69
2023/06/11 13:13:05;;;;;;;;;;;31.90;77.60;;;;;;5097231;28;19924;-69
2023/06/11 13:15:30;;;;;;;;;;;31.90;77.70;;;;;;5097891;28;19946;-69
2023/06/11 13:17:57;;;;;;;;;;;31.90;77.20;;;;;;5080458;28;20383;-71
2023/06/11 13:20:22;;;;;;;;;;;31.80;77.30;;;;;;5080994;28;19923;-69
2023/06/11 13:22:48;;;;;;;;;;;31.70;77.20;;;;;;5097427;28;20401;-69
2023/06/11 13:25:14;;;;;;;;;;;31.60;77.00;;;;;;5080457;28;19924;-69
2023/06/11 13:27:41;;;;;;;;;;;31.50;77.30;;;;;;5080478;28;20027;-69
2023/06/11 13:30:09;;;;;;;;;;;31.50;77.70;;;;;;5096834;28;19970;-69
2023/06/11 13:32:38;;;;;;;;;;;31.60;76.60;;;;;;5097569;28;19924;-69
2023/06/11 13:35:04;;;;;;;;;;;31.60;76.20;;;;;;5097064;28;19930;-69
2023/06/11 13:37:29;;;;;;;;;;;31.60;76.60;;;;;;5097266;28;20385;-69
2023/06/11 13:39:55;;;;;;;;;;;31.70;76.80;;;;;;5115216;28;19924;-67
2023/06/11 13:42:21;;;;;;;;;;;31.70;76.90;;;;;;5114810;28;19923;-69
2023/06/11 13:44:46;;;;;;;;;;;31.60;76.40;;;;;;5115143;28;20055;-68
2023/06/11 13:47:12;;;;;;;;;;;31.50;76.40;;;;;;5096598;28;20014;-69
2023/06/11 13:49:38;;;;;;;;;;;31.50;76.90;;;;;;5079890;28;19923;-68
2023/06/11 13:52:03;;;;;;;;;;;31.50;76.90;;;;;;5096283;28;19971;-68
2023/06/11 13:54:32;;;;;;;;;;;31.50;76.80;;;;;;5097156;28;19994;-68
2023/06/11 13:56:57;;;;;;;;;;;31.50;76.80;;;;;;5097087;28;19923;-68
2023/06/11 13:59:23;;;;;;;;;;;31.60;77.00;;;;;;5075842;28;20011;-70
2023/06/11 14:01:51;;;;;;;;;;;31.70;77.10;;;;;;5076329;28;20375;-68
2023/06/11 14:04:17;;;;;;;;;;;31.70;77.30;;;;;;5076408;28;19931;-69
2023/06/11 14:06:43;;;;;;;;;;;31.60;77.80;;;;;;5076410;28;19924;-68
2023/06/11 14:09:08;;;;;;;;;;;31.60;77.60;;;;;;5058978;28;19924;-68
2023/06/11 14:11:34;;;;;;;;;;;31.50;77.50;;;;;;5076469;28;20000;-67